sensor_id;sensor_type;location;lat;lon;timestamp;pressure;altitude;pressure_sealevel;temperature;humidity
34506;BME280;20748;42.632;23.198;2023-05-24T00:00:48;91872.38;;;10.99;97.15
34506;BME280;20748;42.632;23.198;2023-05-24T00:03:24;91875.28;;;10.98;98.18
34506;BME280;20748;42.632;23.198;2023-05-24T00:05:57;91876.50;;;10.92;98.42
34506;BME280;20748;42.632;23.198;2023-05-24T00:08:29;91874.19;;;10.90;98.16
34506;BME280;20748;42.632;23.198;2023-05-24T00:11:01;91869.59;;;10.87;98.61
34506;BME280;20748;42.632;23.198;2023-05-24T00:13:34;91875.59;;;10.87;99.04
34506;BME280;20748;42.632;23.198;2023-05-24T00:16:06;91877.09;;;10.80;98.87
34506;BME280;20748;42.632;23.198;2023-05-24T00:18:39;91878.91;;;10.79;99.29
34506;BME280;20748;42.632;23.198;2023-05-24T00:21:12;91871.22;;;10.74;99.32
34506;BME280;20748;42.632;23.198;2023-05-24T00:23:44;91865.69;;;10.76;98.61
34506;BME280;20748;42.632;23.198;2023-05-24T00:26:18;91867.03;;;10.64;99.56
34506;BME280;20748;42.632;23.198;2023-05-24T00:28:57;91861.50;;;10.57;99.88
34506;BME280;20748;42.632;23.198;2023-05-24T00:31:29;91868.84;;;10.55;99.68
34506;BME280;20748;42.632;23.198;2023-05-24T00:34:03;91862.22;;;10.48;100.00
34506;BME280;20748;42.632;23.198;2023-05-24T00:36:35;91866.22;;;10.46;100.00
34506;BME280;20748;42.632;23.198;2023-05-24T00:39:08;91860.78;;;10.42;100.00
34506;BME280;20748;42.632;23.198;2023-05-24T00:41:41;91858.97;;;10.43;100.00
34506;BME280;20748;42.632;23.198;2023-05-24T00:44:14;91864.34;;;10.46;100.00
34506;BME280;20748;42.632;23.198;2023-05-24T00:46:46;91871.53;;;10.41;100.00
34506;BME280;20748;42.632;23.198;2023-05-24T00:49:20;91864.75;;;10.40;100.00
34506;BME280;20748;42.632;23.198;2023-05-24T00:51:54;91866.84;;;10.29;100.00
34506;BME280;20748;42.632;23.198;2023-05-24T00:54:27;91863.50;;;10.28;100.00
34506;BME280;20748;42.632;23.198;2023-05-24T00:56:59;91861.94;;;10.27;100.00
34506;BME280;20748;42.632;23.198;2023-05-24T00:59:32;91855.84;;;10.32;100.00
34506;BME280;20748;42.632;23.198;2023-05-24T01:02:05;91862.59;;;10.33;100.00
34506;BME280;20748;42.632;23.198;2023-05-24T01:04:38;91860.88;;;10.28;100.00
34506;BME280;20748;42.632;23.198;2023-05-24T01:07:17;91864.47;;;10.18;100.00
34506;BME280;20748;42.632;23.198;2023-05-24T01:10:02;91871.06;;;10.16;100.00
34506;BME280;20748;42.632;23.198;2023-05-24T01:12:45;91867.34;;;10.08;100.00
34506;BME280;20748;42.632;23.198;2023-05-24T01:15:24;91856.94;;;10.08;100.00
34506;BME280;20748;42.632;23.198;2023-05-24T01:18:04;91867.94;;;10.05;100.00
34506;BME280;20748;42.632;23.198;2023-05-24T01:20:39;91870.09;;;10.03;100.00
34506;BME280;20748;42.632;23.198;2023-05-24T01:23:30;91874.69;;;10.06;100.00
34506;BME280;20748;42.632;23.198;2023-05-24T01:26:17;91873.94;;;10.05;100.00
34506;BME280;20748;42.632;23.198;2023-05-24T01:28:51;91882.22;;;10.07;100.00
34506;BME280;20748;42.632;23.198;2023-05-24T01:31:25;91878.47;;;10.00;100.00
34506;BME280;20748;42.632;23.198;2023-05-24T01:33:58;91877.06;;;9.93;100.00
34506;BME280;20748;42.632;23.198;2023-05-24T01:36:30;91873.22;;;9.91;100.00
34506;BME280;20748;42.632;23.198;2023-05-24T01:39:02;91874.47;;;9.93;100.00
34506;BME280;20748;42.632;23.198;2023-05-24T01:41:39;91878.91;;;9.93;100.00
34506;BME280;20748;42.632;23.198;2023-05-24T01:44:18;91874.84;;;9.87;100.00
34506;BME280;20748;42.632;23.198;2023-05-24T01:47:01;91870.03;;;9.94;100.00
34506;BME280;20748;42.632;23.198;2023-05-24T01:49:37;91871.22;;;9.88;100.00
34506;BME280;20748;42.632;23.198;2023-05-24T01:52:11;91859.00;;;9.74;100.00
34506;BME280;20748;42.632;23.198;2023-05-24T01:54:50;91874.22;;;9.81;100.00
34506;BME280;20748;42.632;23.198;2023-05-24T01:57:24;91877.72;;;9.76;100.00
34506;BME280;20748;42.632;23.198;2023-05-24T01:59:59;91864.19;;;9.74;100.00
34506;BME280;20748;42.632;23.198;2023-05-24T02:02:44;91865.94;;;9.79;100.00
34506;BME280;20748;42.632;23.198;2023-05-24T02:05:16;91868.13;;;9.86;100.00
34506;BME280;20748;42.632;23.198;2023-05-24T02:07:49;91869.78;;;9.82;100.00
34506;BME280;20748;42.632;23.198;2023-05-24T02:10:22;91868.66;;;9.74;100.00
34506;BME280;20748;42.632;23.198;2023-05-24T02:12:54;91849.78;;;9.54;100.00
34506;BME280;20748;42.632;23.198;2023-05-24T02:15:27;91865.31;;;9.59;100.00
34506;BME280;20748;42.632;23.198;2023-05-24T02:18:02;91868.03;;;9.54;100.00
34506;BME280;20748;42.632;23.198;2023-05-24T02:20:34;91860.03;;;9.50;100.00
34506;BME280;20748;42.632;23.198;2023-05-24T02:23:07;91854.94;;;9.45;100.00
34506;BME280;20748;42.632;23.198;2023-05-24T02:25:41;91859.09;;;9.46;100.00
34506;BME280;20748;42.632;23.198;2023-05-24T02:28:14;91847.78;;;9.51;100.00
34506;BME280;20748;42.632;23.198;2023-05-24T02:30:47;91851.03;;;9.57;100.00
34506;BME280;20748;42.632;23.198;2023-05-24T02:33:19;91854.56;;;9.38;100.00
34506;BME280;20748;42.632;23.198;2023-05-24T02:35:52;91845.59;;;9.44;100.00
34506;BME280;20748;42.632;23.198;2023-05-24T02:38:24;91852.81;;;9.47;100.00
34506;BME280;20748;42.632;23.198;2023-05-24T02:40:57;91852.72;;;9.52;100.00
34506;BME280;20748;42.632;23.198;2023-05-24T02:43:29;91852.22;;;9.50;100.00
34506;BME280;20748;42.632;23.198;2023-05-24T02:46:02;91851.41;;;9.41;100.00
34506;BME280;20748;42.632;23.198;2023-05-24T02:48:34;91851.31;;;9.32;100.00
34506;BME280;20748;42.632;23.198;2023-05-24T02:51:07;91852.06;;;9.33;100.00
34506;BME280;20748;42.632;23.198;2023-05-24T02:53:40;91850.25;;;9.33;100.00
34506;BME280;20748;42.632;23.198;2023-05-24T02:56:14;91846.97;;;9.27;100.00
34506;BME280;20748;42.632;23.198;2023-05-24T02:58:48;91852.69;;;9.30;100.00
34506;BME280;20748;42.632;23.198;2023-05-24T03:01:21;91851.31;;;9.32;100.00
34506;BME280;20748;42.632;23.198;2023-05-24T03:03:55;91849.00;;;9.31;100.00
34506;BME280;20748;42.632;23.198;2023-05-24T03:06:28;91859.31;;;9.36;100.00
34506;BME280;20748;42.632;23.198;2023-05-24T03:09:01;91860.97;;;9.18;100.00
34506;BME280;20748;42.632;23.198;2023-05-24T03:11:33;91865.00;;;9.24;100.00
34506;BME280;20748;42.632;23.198;2023-05-24T03:14:06;91863.91;;;9.16;100.00
34506;BME280;20748;42.632;23.198;2023-05-24T03:16:41;91866.78;;;9.15;100.00
34506;BME280;20748;42.632;23.198;2023-05-24T03:19:14;91863.13;;;9.16;100.00
34506;BME280;20748;42.632;23.198;2023-05-24T03:21:47;91861.88;;;9.13;100.00
34506;BME280;20748;42.632;23.198;2023-05-24T03:24:20;91873.06;;;9.13;100.00
34506;BME280;20748;42.632;23.198;2023-05-24T03:26:53;91865.16;;;9.05;100.00
34506;BME280;20748;42.632;23.198;2023-05-24T03:29:25;91875.25;;;9.06;100.00
34506;BME280;20748;42.632;23.198;2023-05-24T03:31:59;91872.66;;;9.06;100.00
34506;BME280;20748;42.632;23.198;2023-05-24T03:34:32;91873.81;;;9.00;100.00
34506;BME280;20748;42.632;23.198;2023-05-24T03:37:05;91882.78;;;9.08;100.00
34506;BME280;20748;42.632;23.198;2023-05-24T03:39:37;91883.47;;;9.13;100.00
34506;BME280;20748;42.632;23.198;2023-05-24T03:42:32;91879.50;;;9.16;100.00
34506;BME280;20748;42.632;23.198;2023-05-24T03:45:06;91883.16;;;9.15;100.00
34506;BME280;20748;42.632;23.198;2023-05-24T03:47:39;91886.91;;;9.23;100.00
34506;BME280;20748;42.632;23.198;2023-05-24T03:50:12;91886.72;;;9.19;100.00
34506;BME280;20748;42.632;23.198;2023-05-24T03:52:45;91883.66;;;9.17;100.00
34506;BME280;20748;42.632;23.198;2023-05-24T03:55:18;91886.72;;;9.19;100.00
34506;BME280;20748;42.632;23.198;2023-05-24T03:57:53;91886.44;;;9.21;100.00
34506;BME280;20748;42.632;23.198;2023-05-24T04:00:26;91886.34;;;9.26;100.00
34506;BME280;20748;42.632;23.198;2023-05-24T04:02:59;91888.84;;;9.31;100.00
34506;BME280;20748;42.632;23.198;2023-05-24T04:05:33;91897.91;;;9.34;100.00
34506;BME280;20748;42.632;23.198;2023-05-24T04:08:06;91892.78;;;9.43;100.00
34506;BME280;20748;42.632;23.198;2023-05-24T04:10:41;91895.84;;;9.45;100.00
34506;BME280;20748;42.632;23.198;2023-05-24T04:13:16;91893.63;;;9.38;100.00
34506;BME280;20748;42.632;23.198;2023-05-24T04:15:48;91892.00;;;9.42;100.00
34506;BME280;20748;42.632;23.198;2023-05-24T04:18:21;91895.38;;;9.43;100.00
34506;BME280;20748;42.632;23.198;2023-05-24T04:20:54;91898.91;;;9.47;100.00
34506;BME280;20748;42.632;23.198;2023-05-24T04:23:26;91890.81;;;9.48;100.00
34506;BME280;20748;42.632;23.198;2023-05-24T04:25:58;91890.25;;;9.51;100.00
34506;BME280;20748;42.632;23.198;2023-05-24T04:28:32;91895.31;;;9.57;100.00
34506;BME280;20748;42.632;23.198;2023-05-24T04:31:04;91891.53;;;9.63;100.00
34506;BME280;20748;42.632;23.198;2023-05-24T04:33:38;91888.25;;;9.71;100.00
34506;BME280;20748;42.632;23.198;2023-05-24T04:36:10;91894.41;;;9.75;100.00
34506;BME280;20748;42.632;23.198;2023-05-24T04:38:44;91894.88;;;9.77;100.00
34506;BME280;20748;42.632;23.198;2023-05-24T04:41:16;91902.47;;;9.88;100.00
34506;BME280;20748;42.632;23.198;2023-05-24T04:43:49;91905.16;;;9.97;100.00
34506;BME280;20748;42.632;23.198;2023-05-24T04:46:21;91905.84;;;10.11;100.00
34506;BME280;20748;42.632;23.198;2023-05-24T04:48:57;91914.50;;;10.20;100.00
34506;BME280;20748;42.632;23.198;2023-05-24T04:51:29;91910.09;;;10.30;100.00
34506;BME280;20748;42.632;23.198;2023-05-24T04:54:02;91912.75;;;10.39;100.00
34506;BME280;20748;42.632;23.198;2023-05-24T04:56:39;91912.53;;;10.49;100.00
34506;BME280;20748;42.632;23.198;2023-05-24T04:59:11;91912.13;;;10.56;100.00
34506;BME280;20748;42.632;23.198;2023-05-24T05:01:44;91919.38;;;10.68;100.00
34506;BME280;20748;42.632;23.198;2023-05-24T05:04:17;91918.06;;;10.79;100.00
34506;BME280;20748;42.632;23.198;2023-05-24T05:06:50;91913.94;;;10.87;100.00
34506;BME280;20748;42.632;23.198;2023-05-24T05:09:23;91913.97;;;10.96;100.00
34506;BME280;20748;42.632;23.198;2023-05-24T05:11:55;91914.19;;;11.08;100.00
34506;BME280;20748;42.632;23.198;2023-05-24T05:14:27;91899.75;;;11.11;100.00
34506;BME280;20748;42.632;23.198;2023-05-24T05:17:00;91915.31;;;11.34;100.00
34506;BME280;20748;42.632;23.198;2023-05-24T05:19:33;91917.19;;;11.51;100.00
34506;BME280;20748;42.632;23.198;2023-05-24T05:22:06;91912.47;;;11.71;100.00
34506;BME280;20748;42.632;23.198;2023-05-24T05:24:38;91917.06;;;11.91;100.00
34506;BME280;20748;42.632;23.198;2023-05-24T05:27:11;91917.72;;;12.15;100.00
34506;BME280;20748;42.632;23.198;2023-05-24T05:29:43;91917.50;;;12.38;100.00
34506;BME280;20748;42.632;23.198;2023-05-24T05:32:15;91923.03;;;12.54;99.29
34506;BME280;20748;42.632;23.198;2023-05-24T05:34:48;91922.25;;;12.62;98.33
34506;BME280;20748;42.632;23.198;2023-05-24T05:37:21;91922.16;;;12.88;96.17
34506;BME280;20748;42.632;23.198;2023-05-24T05:39:53;91913.28;;;13.11;95.32
34506;BME280;20748;42.632;23.198;2023-05-24T05:42:25;91917.50;;;13.33;94.27
34506;BME280;20748;42.632;23.198;2023-05-24T05:44:58;91921.06;;;13.59;89.93
34506;BME280;20748;42.632;23.198;2023-05-24T05:47:30;91922.31;;;13.82;89.33
34506;BME280;20748;42.632;23.198;2023-05-24T05:50:04;91922.13;;;14.09;87.39
34506;BME280;20748;42.632;23.198;2023-05-24T05:52:37;91919.81;;;14.29;84.09
34506;BME280;20748;42.632;23.198;2023-05-24T05:55:09;91926.84;;;14.49;79.09
34506;BME280;20748;42.632;23.198;2023-05-24T05:57:42;91922.97;;;14.68;81.64
34506;BME280;20748;42.632;23.198;2023-05-24T06:00:15;91931.16;;;14.88;78.52
34506;BME280;20748;42.632;23.198;2023-05-24T06:02:48;91935.88;;;15.07;77.94
34506;BME280;20748;42.632;23.198;2023-05-24T06:05:21;91930.06;;;15.26;75.45
34506;BME280;20748;42.632;23.198;2023-05-24T06:07:53;91943.00;;;15.44;74.95
34506;BME280;20748;42.632;23.198;2023-05-24T06:10:26;91933.91;;;15.66;75.76
34506;BME280;20748;42.632;23.198;2023-05-24T06:13:00;91935.72;;;15.91;74.84
34506;BME280;20748;42.632;23.198;2023-05-24T06:15:32;91945.63;;;15.94;73.66
34506;BME280;20748;42.632;23.198;2023-05-24T06:18:06;91942.44;;;16.29;75.87
34506;BME280;20748;42.632;23.198;2023-05-24T06:20:39;91942.00;;;16.56;75.13
34506;BME280;20748;42.632;23.198;2023-05-24T06:23:11;91945.34;;;16.69;74.72
34506;BME280;20748;42.632;23.198;2023-05-24T06:25:44;91945.88;;;16.74;74.65
34506;BME280;20748;42.632;23.198;2023-05-24T06:28:16;91943.81;;;16.84;71.48
34506;BME280;20748;42.632;23.198;2023-05-24T06:30:48;91941.97;;;17.00;74.07
34506;BME280;20748;42.632;23.198;2023-05-24T06:33:21;91940.06;;;17.29;73.07
34506;BME280;20748;42.632;23.198;2023-05-24T06:35:54;91943.97;;;17.36;74.11
34506;BME280;20748;42.632;23.198;2023-05-24T06:38:26;91944.13;;;17.43;76.40
34506;BME280;20748;42.632;23.198;2023-05-24T06:40:59;91939.59;;;17.60;74.29
34506;BME280;20748;42.632;23.198;2023-05-24T06:43:31;91937.34;;;17.58;74.48
34506;BME280;20748;42.632;23.198;2023-05-24T06:46:04;91929.22;;;17.67;71.92
34506;BME280;20748;42.632;23.198;2023-05-24T06:48:36;91936.31;;;17.82;71.07
34506;BME280;20748;42.632;23.198;2023-05-24T06:51:10;91932.44;;;17.76;70.71
34506;BME280;20748;42.632;23.198;2023-05-24T06:53:42;91933.94;;;17.77;70.34
34506;BME280;20748;42.632;23.198;2023-05-24T06:56:15;91938.63;;;17.84;68.52
34506;BME280;20748;42.632;23.198;2023-05-24T06:58:47;91937.81;;;18.00;69.26
34506;BME280;20748;42.632;23.198;2023-05-24T07:01:20;91937.28;;;18.10;70.21
34506;BME280;20748;42.632;23.198;2023-05-24T07:03:53;91941.41;;;18.27;68.27
34506;BME280;20748;42.632;23.198;2023-05-24T07:06:26;91942.66;;;18.33;65.45
34506;BME280;20748;42.632;23.198;2023-05-24T07:08:58;91943.16;;;18.39;66.56
34506;BME280;20748;42.632;23.198;2023-05-24T07:11:32;91946.34;;;18.48;66.47
34506;BME280;20748;42.632;23.198;2023-05-24T07:14:04;91940.13;;;18.60;65.15
34506;BME280;20748;42.632;23.198;2023-05-24T07:16:37;91940.28;;;18.68;61.48
34506;BME280;20748;42.632;23.198;2023-05-24T07:19:09;91939.91;;;18.69;58.93
34506;BME280;20748;42.632;23.198;2023-05-24T07:21:42;91937.88;;;18.82;59.50
34506;BME280;20748;42.632;23.198;2023-05-24T07:24:15;91940.94;;;18.84;60.58
34506;BME280;20748;42.632;23.198;2023-05-24T07:26:48;91944.06;;;18.90;62.08
34506;BME280;20748;42.632;23.198;2023-05-24T07:29:20;91942.19;;;18.90;58.43
34506;BME280;20748;42.632;23.198;2023-05-24T07:31:53;91947.19;;;18.96;60.27
34506;BME280;20748;42.632;23.198;2023-05-24T07:34:27;91945.63;;;19.14;59.42
34506;BME280;20748;42.632;23.198;2023-05-24T07:37:01;91947.34;;;19.26;57.51
34506;BME280;20748;42.632;23.198;2023-05-24T07:39:34;91951.25;;;19.36;55.39
34506;BME280;20748;42.632;23.198;2023-05-24T07:42:06;91955.66;;;19.28;59.02
34506;BME280;20748;42.632;23.198;2023-05-24T07:44:39;91953.09;;;19.32;57.61
34506;BME280;20748;42.632;23.198;2023-05-24T07:47:11;91948.38;;;19.45;60.20
34506;BME280;20748;42.632;23.198;2023-05-24T07:49:43;91945.59;;;19.61;60.74
34506;BME280;20748;42.632;23.198;2023-05-24T07:52:16;91950.94;;;19.65;56.61
34506;BME280;20748;42.632;23.198;2023-05-24T07:54:49;91952.97;;;19.75;58.65
34506;BME280;20748;42.632;23.198;2023-05-24T07:57:21;91944.47;;;19.89;59.91
34506;BME280;20748;42.632;23.198;2023-05-24T07:59:54;91947.72;;;20.02;57.68
34506;BME280;20748;42.632;23.198;2023-05-24T08:02:26;91940.31;;;20.15;53.42
34506;BME280;20748;42.632;23.198;2023-05-24T08:04:59;91948.09;;;20.35;54.80
34506;BME280;20748;42.632;23.198;2023-05-24T08:07:33;91950.44;;;20.40;53.10
34506;BME280;20748;42.632;23.198;2023-05-24T08:10:07;91945.72;;;20.26;54.28
34506;BME280;20748;42.632;23.198;2023-05-24T08:12:41;91937.50;;;20.35;55.67
34506;BME280;20748;42.632;23.198;2023-05-24T08:15:13;91946.22;;;20.35;53.83
34506;BME280;20748;42.632;23.198;2023-05-24T08:17:46;91942.84;;;20.38;49.36
34506;BME280;20748;42.632;23.198;2023-05-24T08:20:19;91938.41;;;20.46;49.69
34506;BME280;20748;42.632;23.198;2023-05-24T08:22:52;91939.50;;;20.79;50.85
34506;BME280;20748;42.632;23.198;2023-05-24T08:25:24;91933.91;;;20.85;50.74
34506;BME280;20748;42.632;23.198;2023-05-24T08:27:57;91941.88;;;20.88;48.92
34506;BME280;20748;42.632;23.198;2023-05-24T08:30:30;91935.06;;;20.87;48.49
34506;BME280;20748;42.632;23.198;2023-05-24T08:33:03;91939.22;;;20.88;48.73
34506;BME280;20748;42.632;23.198;2023-05-24T08:35:35;91939.69;;;20.94;45.96
34506;BME280;20748;42.632;23.198;2023-05-24T08:38:08;91942.00;;;20.99;45.70
34506;BME280;20748;42.632;23.198;2023-05-24T08:40:41;91942.84;;;21.07;47.21
34506;BME280;20748;42.632;23.198;2023-05-24T08:43:14;91940.03;;;21.38;47.08
34506;BME280;20748;42.632;23.198;2023-05-24T08:45:47;91946.16;;;21.45;50.30
34506;BME280;20748;42.632;23.198;2023-05-24T08:48:21;91939.41;;;21.55;48.21
34506;BME280;20748;42.632;23.198;2023-05-24T08:50:56;91944.22;;;21.88;46.72
34506;BME280;20748;42.632;23.198;2023-05-24T08:53:31;91948.38;;;21.85;43.90
34506;BME280;20748;42.632;23.198;2023-05-24T08:56:06;91939.66;;;21.88;41.74
34506;BME280;20748;42.632;23.198;2023-05-24T08:58:39;91948.69;;;21.72;44.53
34506;BME280;20748;42.632;23.198;2023-05-24T09:01:12;91943.75;;;21.75;43.61
34506;BME280;20748;42.632;23.198;2023-05-24T09:03:46;91940.06;;;21.90;44.09
34506;BME280;20748;42.632;23.198;2023-05-24T09:06:18;91945.47;;;22.12;42.00
34506;BME280;20748;42.632;23.198;2023-05-24T09:08:51;91942.81;;;22.08;43.20
34506;BME280;20748;42.632;23.198;2023-05-24T09:11:24;91944.28;;;21.98;42.45
34506;BME280;20748;42.632;23.198;2023-05-24T09:14:01;91938.22;;;22.02;42.59
34506;BME280;20748;42.632;23.198;2023-05-24T09:16:34;91936.03;;;22.18;44.17
34506;BME280;20748;42.632;23.198;2023-05-24T09:19:06;91928.56;;;22.49;41.69
34506;BME280;20748;42.632;23.198;2023-05-24T09:21:39;91933.13;;;22.49;41.57
34506;BME280;20748;42.632;23.198;2023-05-24T09:24:12;91935.06;;;22.56;40.60
34506;BME280;20748;42.632;23.198;2023-05-24T09:26:47;91933.97;;;22.67;41.33
34506;BME280;20748;42.632;23.198;2023-05-24T09:29:21;91932.06;;;22.72;40.86
34506;BME280;20748;42.632;23.198;2023-05-24T09:31:55;91938.97;;;23.02;43.27
34506;BME280;20748;42.632;23.198;2023-05-24T09:34:28;91934.06;;;23.26;41.23
34506;BME280;20748;42.632;23.198;2023-05-24T09:37:01;91937.53;;;23.33;40.01
34506;BME280;20748;42.632;23.198;2023-05-24T09:39:34;91938.25;;;23.23;38.31
34506;BME280;20748;42.632;23.198;2023-05-24T09:42:06;91934.50;;;23.35;38.98
34506;BME280;20748;42.632;23.198;2023-05-24T09:44:39;91933.34;;;23.32;39.95
34506;BME280;20748;42.632;23.198;2023-05-24T09:47:11;91932.19;;;23.44;40.56
34506;BME280;20748;42.632;23.198;2023-05-24T09:49:44;91932.19;;;23.52;38.06
34506;BME280;20748;42.632;23.198;2023-05-24T09:52:21;91936.75;;;23.66;38.01
34506;BME280;20748;42.632;23.198;2023-05-24T09:54:54;91934.09;;;23.58;36.33
34506;BME280;20748;42.632;23.198;2023-05-24T09:57:27;91923.06;;;23.60;38.93
34506;BME280;20748;42.632;23.198;2023-05-24T10:00:04;91931.03;;;23.82;37.31
34506;BME280;20748;42.632;23.198;2023-05-24T10:02:45;91935.59;;;23.78;35.26
34506;BME280;20748;42.632;23.198;2023-05-24T10:05:25;91927.25;;;23.76;36.78
34506;BME280;20748;42.632;23.198;2023-05-24T10:07:58;91929.16;;;23.68;34.90
34506;BME280;20748;42.632;23.198;2023-05-24T10:10:32;91920.38;;;23.89;36.61
34506;BME280;20748;42.632;23.198;2023-05-24T10:13:05;91927.22;;;23.83;38.96
34506;BME280;20748;42.632;23.198;2023-05-24T10:15:38;91922.31;;;23.70;36.11
34506;BME280;20748;42.632;23.198;2023-05-24T10:18:10;91927.56;;;24.10;36.66
34506;BME280;20748;42.632;23.198;2023-05-24T10:20:45;91930.63;;;23.98;34.01
34506;BME280;20748;42.632;23.198;2023-05-24T10:23:21;91924.50;;;24.16;36.22
34506;BME280;20748;42.632;23.198;2023-05-24T10:26:01;91914.59;;;24.05;36.57
34506;BME280;20748;42.632;23.198;2023-05-24T10:28:37;91921.81;;;24.23;35.46
34506;BME280;20748;42.632;23.198;2023-05-24T10:31:14;91910.59;;;24.64;33.41
34506;BME280;20748;42.632;23.198;2023-05-24T10:33:48;91911.41;;;24.54;32.68
34506;BME280;20748;42.632;23.198;2023-05-24T10:36:23;91917.06;;;24.67;35.07
34506;BME280;20748;42.632;23.198;2023-05-24T10:38:56;91915.44;;;24.88;37.24
34506;BME280;20748;42.632;23.198;2023-05-24T10:41:37;91908.19;;;24.92;32.41
34506;BME280;20748;42.632;23.198;2023-05-24T10:44:11;91904.50;;;25.31;32.52
34506;BME280;20748;42.632;23.198;2023-05-24T10:47:06;91906.22;;;25.03;32.32
34506;BME280;20748;42.632;23.198;2023-05-24T10:49:47;91896.38;;;24.89;31.75
34506;BME280;20748;42.632;23.198;2023-05-24T10:52:32;91894.88;;;24.88;29.90
34506;BME280;20748;42.632;23.198;2023-05-24T10:55:06;91894.00;;;25.06;31.80
34506;BME280;20748;42.632;23.198;2023-05-24T10:57:40;91884.63;;;25.36;30.47
34506;BME280;20748;42.632;23.198;2023-05-24T11:00:28;91885.41;;;25.79;31.61
34506;BME280;20748;42.632;23.198;2023-05-24T11:03:07;91895.44;;;25.18;30.44
34506;BME280;20748;42.632;23.198;2023-05-24T11:05:51;91898.19;;;25.07;31.95
34506;BME280;20748;42.632;23.198;2023-05-24T11:08:28;91885.16;;;25.16;32.87
34506;BME280;20748;42.632;23.198;2023-05-24T11:11:05;91886.91;;;24.77;33.26
34506;BME280;20748;42.632;23.198;2023-05-24T11:13:56;91889.06;;;25.01;31.66
34506;BME280;20748;42.632;23.198;2023-05-24T11:16:32;91889.03;;;25.12;31.41
34506;BME280;20748;42.632;23.198;2023-05-24T11:19:15;91881.16;;;24.90;32.34
34506;BME280;20748;42.632;23.198;2023-05-24T11:21:49;91876.44;;;25.09;32.97
34506;BME280;20748;42.632;23.198;2023-05-24T11:24:22;91874.53;;;25.58;31.87
34506;BME280;20748;42.632;23.198;2023-05-24T11:26:56;91868.59;;;25.36;32.99
34506;BME280;20748;42.632;23.198;2023-05-24T11:29:29;91883.84;;;25.39;32.39
34506;BME280;20748;42.632;23.198;2023-05-24T11:32:02;91886.44;;;25.46;31.32
34506;BME280;20748;42.632;23.198;2023-05-24T11:34:38;91878.91;;;25.83;31.94
34506;BME280;20748;42.632;23.198;2023-05-24T11:37:11;91869.63;;;25.92;29.36
34506;BME280;20748;42.632;23.198;2023-05-24T11:39:49;91870.47;;;25.85;31.69
34506;BME280;20748;42.632;23.198;2023-05-24T11:42:23;91878.47;;;25.89;32.16
34506;BME280;20748;42.632;23.198;2023-05-24T11:44:56;91876.38;;;25.65;32.10
34506;BME280;20748;42.632;23.198;2023-05-24T11:47:28;91862.53;;;25.36;31.16
34506;BME280;20748;42.632;23.198;2023-05-24T11:50:01;91863.72;;;25.73;30.45
34506;BME280;20748;42.632;23.198;2023-05-24T11:52:37;91864.44;;;26.12;31.71
34506;BME280;20748;42.632;23.198;2023-05-24T11:55:11;91858.03;;;26.06;32.47
34506;BME280;20748;42.632;23.198;2023-05-24T11:57:53;91861.47;;;26.06;31.72
34506;BME280;20748;42.632;23.198;2023-05-24T12:00:29;91858.81;;;26.03;31.31
34506;BME280;20748;42.632;23.198;2023-05-24T12:03:02;91864.19;;;26.37;30.80
34506;BME280;20748;42.632;23.198;2023-05-24T12:05:38;91852.44;;;26.31;30.17
34506;BME280;20748;42.632;23.198;2023-05-24T12:08:11;91854.16;;;26.10;31.82
34506;BME280;20748;42.632;23.198;2023-05-24T12:10:44;91854.69;;;25.98;32.02
34506;BME280;20748;42.632;23.198;2023-05-24T12:13:20;91857.72;;;26.35;31.71
34506;BME280;20748;42.632;23.198;2023-05-24T12:15:55;91852.94;;;26.50;29.88
34506;BME280;20748;42.632;23.198;2023-05-24T12:18:28;91854.13;;;26.14;30.74
34506;BME280;20748;42.632;23.198;2023-05-24T12:21:07;91847.31;;;25.74;31.58
34506;BME280;20748;42.632;23.198;2023-05-24T12:23:39;91855.84;;;25.58;30.05
34506;BME280;20748;42.632;23.198;2023-05-24T12:26:12;91846.25;;;25.65;29.65
34506;BME280;20748;42.632;23.198;2023-05-24T12:28:52;91839.50;;;25.87;30.94
34506;BME280;20748;42.632;23.198;2023-05-24T12:31:26;91834.47;;;25.97;31.67
34506;BME280;20748;42.632;23.198;2023-05-24T12:33:58;91834.00;;;25.67;31.02
34506;BME280;20748;42.632;23.198;2023-05-24T12:36:31;91834.91;;;25.92;30.33
34506;BME280;20748;42.632;23.198;2023-05-24T12:39:19;91842.34;;;25.73;31.07
34506;BME280;20748;42.632;23.198;2023-05-24T12:41:53;91832.19;;;25.60;31.87
34506;BME280;20748;42.632;23.198;2023-05-24T12:44:27;91832.88;;;25.68;30.63
34506;BME280;20748;42.632;23.198;2023-05-24T12:47:01;91823.88;;;25.47;32.32
34506;BME280;20748;42.632;23.198;2023-05-24T12:49:35;91829.94;;;25.55;31.12
34506;BME280;20748;42.632;23.198;2023-05-24T12:52:07;91828.06;;;25.48;32.44
34506;BME280;20748;42.632;23.198;2023-05-24T12:54:40;91831.50;;;25.03;31.33
34506;BME280;20748;42.632;23.198;2023-05-24T12:57:12;91827.56;;;25.19;32.10
34506;BME280;20748;42.632;23.198;2023-05-24T12:59:45;91817.94;;;25.29;32.67
34506;BME280;20748;42.632;23.198;2023-05-24T13:02:18;91821.84;;;25.17;31.65
34506;BME280;20748;42.632;23.198;2023-05-24T13:04:58;91826.50;;;25.05;31.56
34506;BME280;20748;42.632;23.198;2023-05-24T13:07:31;91828.63;;;24.76;30.50
34506;BME280;20748;42.632;23.198;2023-05-24T13:10:04;91824.56;;;24.53;31.15
34506;BME280;20748;42.632;23.198;2023-05-24T13:12:36;91823.25;;;24.83;31.03
34506;BME280;20748;42.632;23.198;2023-05-24T13:15:10;91819.84;;;24.75;30.32
34506;BME280;20748;42.632;23.198;2023-05-24T13:17:44;91815.59;;;24.89;32.31
34506;BME280;20748;42.632;23.198;2023-05-24T13:20:16;91818.66;;;24.87;31.94
34506;BME280;20748;42.632;23.198;2023-05-24T13:22:52;91812.72;;;24.61;31.19